createdAt,value
2023-02-22T00:00:45.291Z,8.07
2023-02-22T00:03:25.254Z,8.10
2023-02-22T00:05:55.067Z,7.63
2023-02-22T00:08:23.812Z,8.60
2023-02-22T00:13:22.801Z,8.70
2023-02-22T00:15:50.100Z,8.65
2023-02-22T00:18:19.696Z,8.70
2023-02-22T00:20:47.069Z,9.07
2023-02-22T00:23:16.482Z,10.68
2023-02-22T00:25:43.700Z,9.70
2023-02-22T00:28:10.817Z,11.23
2023-02-22T00:30:38.107Z,9.50
2023-02-22T00:33:06.111Z,11.02
2023-02-22T00:35:34.802Z,10.25
2023-02-22T00:38:03.419Z,10.18
2023-02-22T00:40:32.474Z,9.88
2023-02-22T00:43:01.165Z,10.35
2023-02-22T00:45:30.299Z,10.43
2023-02-22T00:47:57.862Z,9.07
2023-02-22T00:50:27.851Z,9.55
2023-02-22T00:52:56.929Z,8.93
2023-02-22T00:55:31.238Z,8.65
2023-02-22T00:57:59.447Z,9.18
2023-02-22T01:00:28.721Z,10.88
2023-02-22T01:02:56.874Z,11.10
2023-02-22T01:05:26.490Z,10.32
2023-02-22T01:07:55.774Z,10.90
2023-02-22T01:10:27.174Z,11.57
2023-02-22T01:12:55.032Z,11.43
2023-02-22T01:15:25.290Z,12.63
2023-02-22T01:17:53.683Z,11.80
2023-02-22T01:20:29.195Z,10.35
2023-02-22T01:22:59.058Z,10.80
2023-02-22T01:25:30.099Z,10.82
2023-02-22T01:27:58.502Z,9.68
2023-02-22T01:30:28.306Z,10.00
2023-02-22T01:32:55.794Z,11.10
2023-02-22T01:35:25.326Z,11.02
2023-02-22T01:37:52.446Z,11.30
2023-02-22T01:40:22.466Z,11.50
2023-02-22T01:42:53.321Z,9.00
2023-02-22T01:45:42.903Z,7.60
2023-02-22T01:48:15.070Z,7.53
2023-02-22T01:50:47.410Z,7.53
2023-02-22T01:53:18.068Z,7.40
2023-02-22T01:55:47.501Z,7.53
2023-02-22T02:00:44.814Z,7.80
2023-02-22T02:03:16.028Z,8.13
2023-02-22T02:05:48.839Z,8.15
2023-02-22T02:08:25.962Z,8.02
2023-02-22T02:10:55.313Z,7.90
2023-02-22T02:15:55.047Z,7.78
2023-02-22T02:18:24.442Z,8.27
2023-02-22T02:21:16.475Z,7.88
2023-02-22T02:24:04.903Z,7.63
2023-02-22T02:27:00.923Z,8.20
2023-02-22T02:30:16.706Z,7.53
2023-02-22T02:32:58.894Z,8.15
2023-02-22T02:35:33.915Z,8.43
2023-02-22T02:38:09.080Z,8.45
2023-02-22T02:40:42.000Z,8.52
2023-02-22T02:43:15.721Z,8.27
2023-02-22T02:45:47.454Z,8.27
2023-02-22T02:48:20.945Z,8.07
2023-02-22T02:50:50.355Z,7.97
2023-02-22T02:53:22.463Z,8.18
2023-02-22T02:55:49.411Z,8.43
2023-02-22T02:58:19.680Z,9.43
2023-02-22T03:00:48.905Z,8.52
2023-02-22T03:03:45.015Z,8.70
2023-02-22T03:06:27.448Z,7.95
2023-02-22T03:09:08.015Z,8.02
2023-02-22T03:11:42.638Z,8.45
2023-02-22T03:14:17.939Z,8.50
2023-02-22T03:16:50.298Z,8.48
2023-02-22T03:19:27.066Z,8.65
2023-02-22T03:22:01.266Z,8.40
2023-02-22T03:24:32.892Z,8.55
2023-02-22T03:27:04.195Z,8.25
2023-02-22T03:29:35.628Z,8.07
2023-02-22T03:32:05.932Z,8.60
2023-02-22T03:34:38.673Z,8.70
2023-02-22T03:37:14.494Z,10.02
2023-02-22T03:39:43.524Z,8.57
2023-02-22T03:42:22.985Z,9.25
2023-02-22T03:44:52.656Z,8.63
2023-02-22T03:47:23.722Z,8.60
2023-02-22T03:49:57.580Z,9.25
2023-02-22T03:52:24.750Z,9.50
2023-02-22T03:54:53.764Z,9.73
2023-02-22T03:57:25.228Z,8.75
2023-02-22T03:59:52.993Z,9.73
2023-02-22T04:02:20.129Z,9.52
2023-02-22T04:04:48.259Z,8.77
2023-02-22T04:07:17.170Z,8.68
2023-02-22T04:09:44.502Z,9.00
2023-02-22T04:12:11.497Z,9.60
2023-02-22T04:14:38.718Z,9.32
2023-02-22T04:17:05.633Z,9.93
2023-02-22T04:19:32.938Z,9.60
2023-02-22T04:21:59.875Z,10.35
2023-02-22T04:24:30.471Z,10.52
2023-02-22T04:26:57.649Z,11.10
2023-02-22T04:29:24.876Z,10.23
2023-02-22T04:31:51.863Z,11.20
2023-02-22T04:34:19.133Z,10.93
2023-02-22T04:36:46.079Z,12.27
2023-02-22T04:39:13.550Z,12.73
2023-02-22T04:41:41.922Z,12.40
2023-02-22T04:44:09.082Z,9.20
2023-02-22T04:46:36.114Z,10.45
2023-02-22T04:49:03.666Z,9.73
2023-02-22T04:51:31.199Z,10.18
2023-02-22T04:53:58.477Z,9.73
2023-02-22T04:56:25.504Z,9.43
2023-02-22T04:58:54.191Z,10.23
2023-02-22T05:01:21.161Z,9.55
2023-02-22T05:03:48.370Z,9.90
2023-02-22T05:06:16.549Z,10.50
2023-02-22T05:08:43.905Z,10.20
2023-02-22T05:11:10.856Z,10.13
2023-02-22T05:13:38.232Z,10.10
2023-02-22T05:16:07.199Z,10.07
2023-02-22T05:18:34.418Z,10.52
2023-02-22T05:21:01.531Z,10.95
2023-02-22T05:23:28.705Z,13.07
2023-02-22T05:25:55.603Z,11.50
2023-02-22T05:28:22.938Z,11.63
2023-02-22T05:30:50.079Z,11.00
2023-02-22T05:33:18.781Z,10.90
2023-02-22T05:35:46.299Z,9.93
2023-02-22T05:38:15.039Z,10.55
2023-02-22T05:40:42.704Z,11.23
2023-02-22T05:43:10.366Z,10.63
2023-02-22T05:45:37.568Z,11.18
2023-02-22T05:48:07.978Z,11.30
2023-02-22T05:50:36.424Z,11.90
2023-02-22T05:53:05.575Z,11.02
2023-02-22T05:55:35.248Z,9.93
2023-02-22T05:58:05.737Z,11.13
2023-02-22T06:00:32.987Z,10.77
2023-02-22T06:03:02.181Z,11.02
2023-02-22T06:05:30.177Z,11.52
2023-02-22T06:07:59.763Z,11.83
2023-02-22T06:10:27.402Z,11.35
2023-02-22T06:12:55.942Z,9.98
2023-02-22T06:15:24.454Z,10.37
2023-02-22T06:17:52.997Z,11.02
2023-02-22T06:20:22.698Z,10.77
2023-02-22T06:22:51.471Z,9.65
2023-02-22T06:25:23.990Z,9.70
2023-02-22T06:27:54.071Z,10.95
2023-02-22T06:30:26.265Z,11.23
2023-02-22T06:32:53.871Z,10.60
2023-02-22T06:35:21.824Z,11.20
2023-02-22T06:37:49.514Z,9.82
2023-02-22T06:40:16.656Z,9.38
2023-02-22T06:42:58.843Z,10.27
2023-02-22T06:45:26.186Z,10.27
2023-02-22T06:47:53.667Z,9.93
2023-02-22T06:50:34.894Z,9.90
2023-02-22T06:53:03.826Z,10.25
2023-02-22T06:55:33.089Z,10.65
2023-02-22T06:58:03.978Z,10.50
2023-02-22T07:00:32.334Z,9.35
2023-02-22T07:03:04.422Z,9.85
2023-02-22T07:05:32.128Z,10.60
2023-02-22T07:08:03.545Z,9.98
2023-02-22T07:10:32.103Z,9.60
2023-02-22T07:13:01.255Z,10.10
2023-02-22T07:15:30.488Z,10.05
2023-02-22T07:21:53.137Z,8.25
2023-02-22T07:24:20.086Z,8.95
2023-02-22T07:26:47.411Z,9.55
2023-02-22T07:29:15.729Z,8.93
2023-02-22T07:31:43.030Z,10.10
2023-02-22T07:34:10.680Z,10.02
2023-02-22T07:36:38.124Z,9.73
2023-02-22T07:39:08.761Z,9.70
2023-02-22T07:41:36.056Z,9.90
2023-02-22T07:44:03.349Z,9.35
2023-02-22T07:46:31.970Z,9.70
2023-02-22T07:48:58.943Z,12.73
2023-02-22T07:51:27.007Z,10.57
2023-02-22T07:53:54.118Z,10.05
2023-02-22T07:56:21.643Z,9.93
2023-02-22T07:58:48.956Z,9.52
2023-02-22T08:01:16.610Z,9.40
2023-02-22T08:03:47.597Z,9.02
2023-02-22T08:06:15.391Z,8.65
2023-02-22T08:08:42.904Z,9.63
2023-02-22T08:11:10.393Z,8.80
2023-02-22T08:13:38.637Z,8.73
2023-02-22T08:16:07.712Z,8.15
2023-02-22T08:18:35.511Z,8.07
2023-02-22T08:21:04.606Z,8.23
2023-02-22T08:23:32.867Z,8.40
2023-02-22T08:26:05.428Z,9.32
2023-02-22T08:28:32.458Z,9.30
2023-02-22T08:30:59.767Z,9.10
2023-02-22T08:33:26.867Z,8.77
2023-02-22T08:35:54.484Z,9.45
2023-02-22T08:38:26.918Z,9.88
2023-02-22T08:40:54.633Z,8.80
2023-02-22T08:43:22.474Z,8.85
2023-02-22T08:45:51.956Z,8.23
2023-02-22T08:48:20.120Z,8.55
2023-02-22T08:50:47.739Z,8.63
2023-02-22T08:53:16.372Z,8.10
2023-02-22T08:58:12.689Z,8.35
2023-02-22T09:00:40.908Z,8.60
2023-02-22T09:03:13.202Z,8.27
2023-02-22T09:05:40.743Z,8.52
2023-02-22T09:08:08.815Z,7.82
2023-02-22T09:10:36.062Z,8.10
2023-02-22T09:13:04.923Z,8.55
2023-02-22T09:15:34.188Z,8.13
2023-02-22T09:18:01.326Z,8.25
2023-02-22T09:20:29.093Z,8.50
2023-02-22T09:22:57.807Z,8.23
2023-02-22T09:25:28.547Z,8.88
2023-02-22T09:27:56.705Z,8.35
2023-02-22T09:30:27.989Z,7.95
2023-02-22T09:32:57.967Z,9.00
2023-02-22T09:35:27.308Z,7.68
2023-02-22T09:40:29.567Z,6.77
2023-02-22T09:43:17.718Z,6.40
2023-02-22T09:46:00.616Z,7.28
2023-02-22T09:48:36.368Z,7.63
2023-02-22T09:51:11.699Z,7.35
2023-02-22T09:53:45.331Z,8.57
2023-02-22T09:56:15.492Z,9.48
2023-02-22T09:58:46.173Z,10.23
2023-02-22T10:01:27.110Z,8.02
2023-02-22T10:04:04.021Z,8.05
2023-02-22T10:06:33.563Z,7.88
2023-02-22T10:09:07.778Z,8.07
2023-02-22T10:11:53.043Z,8.05
2023-02-22T10:14:34.956Z,7.68
2023-02-22T10:17:15.178Z,8.52
2023-02-22T10:19:53.706Z,7.72
2023-02-22T10:22:47.523Z,9.02
2023-02-22T10:25:19.326Z,8.38
2023-02-22T10:27:53.200Z,8.02
2023-02-22T10:30:25.467Z,6.78
2023-02-22T10:33:03.192Z,6.70
2023-02-22T10:35:35.278Z,7.10
2023-02-22T10:38:16.642Z,7.07
2023-02-22T10:40:48.565Z,7.30
2023-02-22T10:43:15.884Z,6.85
2023-02-22T10:45:42.855Z,6.43
2023-02-22T10:48:14.583Z,6.85
2023-02-22T10:50:43.786Z,5.50
2023-02-22T10:53:12.803Z,5.28
2023-02-22T10:56:06.293Z,5.57
2023-02-22T10:58:41.567Z,5.70
2023-02-22T11:01:22.951Z,5.68
2023-02-22T11:04:05.652Z,6.82
2023-02-22T11:06:34.014Z,6.65
2023-02-22T11:09:06.594Z,6.18
2023-02-22T11:11:40.039Z,6.43
2023-02-22T11:14:10.705Z,7.80
2023-02-22T11:16:42.178Z,7.13
2023-02-22T11:19:20.664Z,7.47
2023-02-22T11:21:51.516Z,7.35
2023-02-22T11:24:21.047Z,6.60
2023-02-22T11:26:49.954Z,6.10
2023-02-22T11:29:27.215Z,5.78
2023-02-22T11:31:56.569Z,5.82
2023-02-22T11:34:35.403Z,6.20
2023-02-22T11:37:17.889Z,5.72
2023-02-22T11:39:45.774Z,4.90
2023-02-22T11:42:26.086Z,4.90
2023-02-22T11:45:09.863Z,5.60
2023-02-22T11:47:49.263Z,4.95
2023-02-22T11:50:27.810Z,5.55
2023-02-22T11:53:13.626Z,4.45
2023-02-22T11:55:50.414Z,4.32
2023-02-22T11:58:41.718Z,4.32
2023-02-22T12:01:22.982Z,4.25
2023-02-22T12:04:29.783Z,4.72
2023-02-22T12:07:17.021Z,4.85
2023-02-22T12:09:52.636Z,4.60
2023-02-22T12:12:29.594Z,5.57
2023-02-22T12:15:03.251Z,4.40
2023-02-22T12:17:54.323Z,4.63
2023-02-22T12:20:30.989Z,4.43
2023-02-22T12:23:13.291Z,4.55
2023-02-22T12:25:48.593Z,4.82
2023-02-22T12:28:24.926Z,4.68
2023-02-22T12:31:02.416Z,4.75
2023-02-22T12:33:44.285Z,4.60
2023-02-22T12:36:15.608Z,4.65
2023-02-22T12:38:52.090Z,5.03
2023-02-22T12:41:28.906Z,5.00
2023-02-22T12:44:05.274Z,4.00
2023-02-22T12:46:37.167Z,4.07
2023-02-22T12:49:14.152Z,4.20
2023-02-22T12:51:48.869Z,4.30
2023-02-22T12:54:22.125Z,4.53
2023-02-22T12:56:56.013Z,4.38
2023-02-22T12:59:29.833Z,4.18
2023-02-22T13:02:01.490Z,4.13
2023-02-22T13:04:31.929Z,4.40
2023-02-22T13:07:16.112Z,3.50
2023-02-22T13:10:24.644Z,3.72
2023-02-22T13:13:04.700Z,3.90
2023-02-22T13:15:40.859Z,4.30
2023-02-22T13:18:12.996Z,4.18
2023-02-22T13:20:45.486Z,4.00
2023-02-22T13:23:19.264Z,3.83
2023-02-22T13:25:55.276Z,4.80
2023-02-22T13:28:30.318Z,6.90
2023-02-22T13:31:11.364Z,5.72
2023-02-22T13:34:03.186Z,5.93
2023-02-22T13:36:45.540Z,4.70
2023-02-22T13:39:36.381Z,4.28
2023-02-22T13:42:34.359Z,4.82
2023-02-22T13:45:44.365Z,5.43
2023-02-22T13:48:41.452Z,4.45
2023-02-22T13:51:15.530Z,4.65
2023-02-22T13:53:50.628Z,4.15
2023-02-22T13:56:20.467Z,4.90
2023-02-22T13:58:53.153Z,5.40
2023-02-22T14:01:42.471Z,9.15
2023-02-22T14:04:37.215Z,5.00
2023-02-22T14:07:54.501Z,8.93
2023-02-22T14:10:55.777Z,5.95
2023-02-22T14:13:23.635Z,5.78
2023-02-22T14:16:26.314Z,9.13
2023-02-22T14:19:02.912Z,7.20
2023-02-22T14:21:32.270Z,7.72
2023-02-22T14:24:07.832Z,8.85
2023-02-22T14:26:37.857Z,6.15
2023-02-22T14:29:16.878Z,6.95
2023-02-22T14:32:03.130Z,6.88
2023-02-22T14:34:52.455Z,5.95
2023-02-22T14:37:25.015Z,6.35
2023-02-22T14:39:57.281Z,6.30
2023-02-22T14:42:30.231Z,5.93
2023-02-22T14:45:01.699Z,6.15
2023-02-22T14:47:39.845Z,5.65
2023-02-22T14:50:14.073Z,5.82
2023-02-22T14:52:46.731Z,4.95
2023-02-22T14:55:20.174Z,5.38
2023-02-22T14:57:56.858Z,6.28
2023-02-22T15:00:33.356Z,5.20
2023-02-22T15:03:02.293Z,5.97
2023-02-22T15:10:29.203Z,9.68
2023-02-22T15:13:09.544Z,6.88
2023-02-22T15:15:38.554Z,6.50
2023-02-22T15:18:19.790Z,6.07
2023-02-22T15:20:49.148Z,6.47
2023-02-22T15:23:18.177Z,7.30
2023-02-22T15:25:49.569Z,6.72
2023-02-22T15:28:18.299Z,7.05
2023-02-22T15:30:45.538Z,6.90
2023-02-22T15:33:16.919Z,7.32
2023-02-22T15:35:44.326Z,7.13
2023-02-22T15:38:26.513Z,7.57
2023-02-22T15:41:02.598Z,7.45
2023-02-22T15:43:32.333Z,7.70
2023-02-22T15:46:00.978Z,6.97
2023-02-22T15:51:10.586Z,7.43
2023-02-22T15:56:23.837Z,7.28
2023-02-22T15:58:52.596Z,8.50
2023-02-22T16:01:20.886Z,8.90
2023-02-22T16:03:53.424Z,8.38
2023-02-22T16:06:33.497Z,8.43
2023-02-22T16:09:07.851Z,9.10
2023-02-22T16:11:39.810Z,8.85
2023-02-22T16:14:25.032Z,8.85
2023-02-22T16:17:15.400Z,9.35
2023-02-22T16:19:50.427Z,8.50
2023-02-22T16:22:29.474Z,10.88
2023-02-22T16:25:16.479Z,13.45
2023-02-22T16:27:47.444Z,13.10
2023-02-22T16:30:26.973Z,12.85
2023-02-22T16:32:56.697Z,11.00
2023-02-22T16:35:30.485Z,10.88
2023-02-22T16:38:02.729Z,10.57
2023-02-22T16:40:34.554Z,10.40
2023-02-22T16:43:07.283Z,11.27
2023-02-22T16:45:36.072Z,10.07
2023-02-22T16:48:14.740Z,11.32
2023-02-22T16:50:43.483Z,12.45
2023-02-22T16:53:10.826Z,11.32
2023-02-22T16:55:38.025Z,11.73
2023-02-22T16:58:05.546Z,11.52
2023-02-22T17:00:34.236Z,12.55
2023-02-22T17:03:04.014Z,12.55
2023-02-22T17:05:32.432Z,11.23
2023-02-22T17:08:00.820Z,12.13
2023-02-22T17:10:29.058Z,14.00
2023-02-22T17:12:57.410Z,12.90
2023-02-22T17:15:27.454Z,13.73
2023-02-22T17:17:55.964Z,13.73
2023-02-22T17:20:32.762Z,14.60
2023-02-22T17:23:03.407Z,15.27
2023-02-22T17:25:36.727Z,16.02
2023-02-22T17:28:05.204Z,15.40
2023-02-22T17:30:33.076Z,14.75
2023-02-22T17:33:04.011Z,15.40
2023-02-22T17:35:36.513Z,15.27
2023-02-22T17:38:06.671Z,15.82
2023-02-22T17:40:34.813Z,14.60
2023-02-22T17:43:02.588Z,15.57
2023-02-22T17:45:30.674Z,15.23
2023-02-22T17:48:00.928Z,16.75
2023-02-22T17:50:31.688Z,16.55
2023-02-22T17:53:00.572Z,19.13
2023-02-22T17:55:29.893Z,18.05
2023-02-22T18:00:34.387Z,17.67
2023-02-22T18:03:03.966Z,16.33
2023-02-22T18:05:33.148Z,18.42
2023-02-22T18:08:00.506Z,18.80
2023-02-22T18:10:29.149Z,18.95
2023-02-22T18:12:56.837Z,18.75
2023-02-22T18:15:28.224Z,19.30
2023-02-22T18:17:56.031Z,17.67
2023-02-22T18:20:43.836Z,19.03
2023-02-22T18:23:13.641Z,21.55
2023-02-22T18:25:57.225Z,22.85
2023-02-22T18:28:31.413Z,20.33
2023-02-22T18:30:59.485Z,20.20
2023-02-22T18:33:27.344Z,18.30
2023-02-22T18:35:55.224Z,18.73
2023-02-22T18:38:23.369Z,17.52
2023-02-22T18:41:00.385Z,17.15
2023-02-22T18:43:28.210Z,14.77
2023-02-22T18:46:04.212Z,15.53
2023-02-22T18:48:31.674Z,15.25
2023-02-22T18:50:59.704Z,14.25
2023-02-22T18:53:26.820Z,14.48
2023-02-22T18:55:54.113Z,14.50
2023-02-22T18:58:22.534Z,14.27
2023-02-22T19:00:49.953Z,14.05
2023-02-22T19:03:16.957Z,13.98
2023-02-22T19:05:44.110Z,14.77
2023-02-22T19:08:11.421Z,14.45
2023-02-22T19:10:41.112Z,14.27
2023-02-22T19:13:10.783Z,14.32
2023-02-22T19:15:40.155Z,13.90
2023-02-22T19:20:36.516Z,14.30
2023-02-22T19:25:30.630Z,13.55
2023-02-22T19:27:57.569Z,13.73
2023-02-22T19:30:25.322Z,13.73
2023-02-22T19:32:53.995Z,15.82
2023-02-22T19:35:27.366Z,14.85
2023-02-22T19:37:54.673Z,14.30
2023-02-22T19:40:23.243Z,14.25
2023-02-22T19:42:52.868Z,14.30
2023-02-22T19:45:20.410Z,14.07
2023-02-22T19:47:50.689Z,13.52
2023-02-22T19:50:22.243Z,13.57
2023-02-22T19:52:51.629Z,14.40
2023-02-22T19:55:19.036Z,15.10
2023-02-22T19:57:50.208Z,15.18
2023-02-22T20:00:24.460Z,14.68
2023-02-22T20:02:58.020Z,16.25
2023-02-22T20:05:35.381Z,16.27
2023-02-22T20:08:02.979Z,17.27
2023-02-22T20:10:30.369Z,15.65
2023-02-22T20:12:57.366Z,15.95
2023-02-22T20:15:28.121Z,16.38
2023-02-22T20:17:59.279Z,15.27
2023-02-22T20:20:30.316Z,16.52
2023-02-22T20:23:01.065Z,16.05
2023-02-22T20:25:33.301Z,15.73
2023-02-22T20:28:03.999Z,13.82
2023-02-22T20:30:32.574Z,13.27
2023-02-22T20:32:59.995Z,12.00
2023-02-22T20:35:28.965Z,12.65
2023-02-22T20:37:56.373Z,12.20
2023-02-22T20:40:24.355Z,10.75
2023-02-22T20:42:51.405Z,11.02
2023-02-22T20:45:21.734Z,10.77
2023-02-22T20:50:52.733Z,11.77
2023-02-22T20:53:19.999Z,11.18
2023-02-22T20:55:49.923Z,11.43
2023-02-22T20:58:19.920Z,11.90
2023-02-22T21:00:47.708Z,12.57
2023-02-22T21:03:15.183Z,12.07
2023-02-22T21:05:43.800Z,13.35
2023-02-22T21:08:14.173Z,12.57
2023-02-22T21:10:42.206Z,13.02
2023-02-22T21:13:11.457Z,12.00
2023-02-22T21:15:43.387Z,13.30
2023-02-22T21:18:11.185Z,13.45
2023-02-22T21:20:41.046Z,14.38
2023-02-22T21:23:08.754Z,15.43
2023-02-22T21:25:37.777Z,13.82
2023-02-22T21:28:05.391Z,14.85
2023-02-22T21:30:33.017Z,15.48
2023-02-22T21:33:01.254Z,15.55
2023-02-22T21:35:28.259Z,15.57
2023-02-22T21:37:55.606Z,15.35
2023-02-22T21:40:23.162Z,14.88
2023-02-22T21:42:51.853Z,15.05
2023-02-22T21:45:20.955Z,16.75
2023-02-22T21:47:49.327Z,15.43
2023-02-22T21:50:19.072Z,15.83
2023-02-22T21:52:47.859Z,15.55
2023-02-22T21:55:15.412Z,16.50
2023-02-22T21:57:42.904Z,14.68
2023-02-22T22:00:17.179Z,15.48
2023-02-22T22:02:46.119Z,16.23
2023-02-22T22:05:17.196Z,15.27
2023-02-22T22:07:44.701Z,16.15
2023-02-22T22:10:14.513Z,15.55
2023-02-22T22:12:42.712Z,16.75
2023-02-22T22:15:16.318Z,16.38
2023-02-22T22:17:43.565Z,17.05
2023-02-22T22:20:14.743Z,15.73
2023-02-22T22:22:43.519Z,15.52
2023-02-22T22:25:12.542Z,15.98
2023-02-22T22:27:40.149Z,15.40
2023-02-22T22:30:08.538Z,16.60
2023-02-22T22:32:37.971Z,16.35
2023-02-22T22:35:09.279Z,16.30
2023-02-22T22:37:36.531Z,16.08
2023-02-22T22:40:05.663Z,16.65
2023-02-22T22:42:32.880Z,16.45
2023-02-22T22:45:00.005Z,16.45
2023-02-22T22:47:29.574Z,16.35
2023-02-22T22:50:01.464Z,15.82
2023-02-22T22:52:31.307Z,16.40
2023-02-22T22:55:00.683Z,15.88
2023-02-22T22:57:28.188Z,15.93
2023-02-22T22:59:56.072Z,16.83
2023-02-22T23:02:23.347Z,16.10
2023-02-22T23:04:50.549Z,16.70
2023-02-22T23:07:19.210Z,15.88
2023-02-22T23:09:46.269Z,16.65
2023-02-22T23:12:19.460Z,15.65
2023-02-22T23:14:46.969Z,15.57
2023-02-22T23:17:26.882Z,15.27
2023-02-22T23:19:54.912Z,14.98
2023-02-22T23:22:23.770Z,14.15
2023-02-22T23:24:50.765Z,13.85
2023-02-22T23:27:19.012Z,14.20
2023-02-22T23:29:46.686Z,14.23
2023-02-22T23:32:14.556Z,15.32
2023-02-22T23:34:41.893Z,13.60
2023-02-22T23:37:10.338Z,13.10
2023-02-22T23:39:42.315Z,13.23
2023-02-22T23:42:09.947Z,12.98
2023-02-22T23:44:36.989Z,13.35
2023-02-22T23:47:04.512Z,12.48
2023-02-22T23:49:38.488Z,13.88
2023-02-22T23:52:06.919Z,13.30
2023-02-22T23:54:40.388Z,13.33
2023-02-22T23:57:10.105Z,13.93
2023-02-22T23:59:40.377Z,14.30
